createdAt,value
2019-06-08T00:00:03.853Z,17.20
2019-06-08T00:02:31.810Z,13.80
2019-06-08T00:04:59.679Z,18.50
2019-06-08T00:07:27.650Z,12.70
2019-06-08T00:09:55.691Z,12.33
2019-06-08T00:12:23.669Z,10.93
2019-06-08T00:14:51.620Z,12.07
2019-06-08T00:17:37.075Z,15.53
2019-06-08T00:19:49.419Z,12.83
2019-06-08T00:22:17.666Z,10.77
2019-06-08T00:24:45.549Z,10.97
2019-06-08T00:27:14.024Z,11.00
2019-06-08T00:29:42.017Z,9.83
2019-06-08T00:32:09.859Z,15.97
2019-06-08T00:34:37.785Z,17.30
2019-06-08T00:37:05.694Z,13.27
2019-06-08T00:39:33.707Z,12.10
2019-06-08T00:42:01.901Z,12.60
2019-06-08T00:44:29.865Z,12.37
2019-06-08T00:46:57.779Z,13.93
2019-06-08T00:49:26.986Z,13.47
2019-06-08T00:51:54.846Z,8.57
2019-06-08T00:54:23.489Z,11.37
2019-06-08T00:56:51.458Z,10.90
2019-06-08T00:59:19.950Z,9.60
2019-06-08T01:01:48.043Z,12.07
2019-06-08T01:04:16.047Z,11.20
2019-06-08T01:06:44.207Z,10.93
2019-06-08T01:09:12.181Z,10.57
2019-06-08T01:11:40.350Z,10.60
2019-06-08T01:14:08.311Z,13.57
2019-06-08T01:16:36.179Z,11.60
2019-06-08T01:19:04.082Z,11.53
2019-06-08T01:21:32.267Z,11.47
2019-06-08T01:24:02.771Z,9.80
2019-06-08T01:26:30.614Z,11.90
2019-06-08T01:28:58.482Z,11.30
2019-06-08T01:31:26.636Z,9.83
2019-06-08T01:33:54.650Z,10.37
2019-06-08T01:36:22.826Z,17.40
2019-06-08T01:38:50.846Z,10.60
2019-06-08T01:41:18.875Z,13.70
2019-06-08T01:43:46.787Z,8.80
2019-06-08T01:46:14.653Z,10.33
2019-06-08T01:48:42.675Z,14.87
2019-06-08T01:51:10.734Z,12.47
2019-06-08T01:53:38.659Z,15.63
2019-06-08T01:56:06.544Z,8.87
2019-06-08T01:58:34.938Z,10.83
2019-06-08T02:01:02.888Z,12.00
2019-06-08T02:03:30.685Z,12.57
2019-06-08T02:05:58.607Z,11.33
2019-06-08T02:08:26.598Z,9.20
2019-06-08T02:10:54.486Z,7.53
2019-06-08T02:13:22.436Z,15.63
2019-06-08T02:15:50.291Z,12.43
2019-06-08T02:18:32.500Z,11.50
2019-06-08T02:20:48.054Z,8.83
2019-06-08T02:23:16.021Z,9.70
2019-06-08T02:25:43.935Z,9.10
2019-06-08T02:28:11.877Z,11.60
2019-06-08T02:30:41.776Z,13.33
2019-06-08T02:33:09.588Z,9.90
2019-06-08T02:35:37.929Z,9.63
2019-06-08T02:38:05.996Z,14.77
2019-06-08T02:40:35.115Z,9.10
2019-06-08T02:43:03.684Z,12.70
2019-06-08T02:45:32.552Z,12.83
2019-06-08T02:48:01.611Z,11.80
2019-06-08T02:50:48.708Z,10.80
2019-06-08T02:53:17.266Z,11.53
2019-06-08T02:55:46.377Z,10.77
2019-06-08T02:58:15.438Z,16.53
2019-06-08T03:00:43.980Z,13.50
2019-06-08T03:03:12.180Z,11.60
2019-06-08T03:05:40.607Z,14.10
2019-06-08T03:08:09.912Z,10.27
2019-06-08T03:10:39.184Z,10.13
2019-06-08T03:13:08.779Z,9.47
2019-06-08T03:15:38.586Z,15.43
2019-06-08T03:18:06.552Z,10.47
2019-06-08T03:20:35.753Z,11.43
2019-06-08T03:23:04.109Z,10.37
2019-06-08T03:25:33.598Z,13.03
2019-06-08T03:28:01.697Z,9.47
2019-06-08T03:30:29.634Z,9.60
2019-06-08T03:32:57.870Z,16.80
2019-06-08T03:35:25.732Z,12.20
2019-06-08T03:37:53.745Z,11.53
2019-06-08T03:40:21.655Z,13.70
2019-06-08T03:42:51.053Z,15.60
2019-06-08T03:45:19.398Z,7.77
2019-06-08T03:47:47.346Z,10.73
2019-06-08T03:50:15.583Z,14.07
2019-06-08T03:52:44.578Z,12.87
2019-06-08T03:55:13.579Z,9.83
2019-06-08T03:57:42.139Z,10.37
2019-06-08T04:00:13.388Z,8.10
2019-06-08T04:02:42.110Z,13.43
2019-06-08T04:05:10.063Z,11.53
2019-06-08T04:07:39.659Z,11.83
2019-06-08T04:10:08.072Z,14.30
2019-06-08T04:12:37.651Z,12.73
2019-06-08T04:15:05.855Z,10.13
2019-06-08T04:17:33.580Z,12.93
2019-06-08T04:20:10.256Z,12.23
2019-06-08T04:22:31.519Z,16.57
2019-06-08T04:24:59.557Z,9.50
2019-06-08T04:27:27.502Z,8.23
2019-06-08T04:29:55.419Z,20.07
2019-06-08T04:32:23.336Z,13.77
2019-06-08T04:34:51.315Z,16.37
2019-06-08T04:37:19.288Z,19.93
2019-06-08T04:39:47.165Z,17.00
2019-06-08T04:42:15.132Z,20.57
2019-06-08T04:44:44.500Z,24.53
2019-06-08T04:47:12.704Z,21.80
2019-06-08T04:49:43.119Z,20.07
2019-06-08T04:52:14.983Z,15.57
2019-06-08T04:54:42.831Z,14.17
2019-06-08T04:57:10.686Z,16.87
2019-06-08T04:59:39.124Z,17.30
2019-06-08T05:02:07.774Z,20.17
2019-06-08T05:04:35.735Z,17.77
2019-06-08T05:07:03.749Z,17.30
2019-06-08T05:09:31.785Z,18.03
2019-06-08T05:11:59.736Z,15.33
2019-06-08T05:14:27.674Z,20.43
2019-06-08T05:16:55.581Z,24.03
2019-06-08T05:19:23.584Z,24.83
2019-06-08T05:21:51.554Z,25.43
2019-06-08T05:24:19.579Z,24.33
2019-06-08T05:26:47.770Z,21.80
2019-06-08T05:29:15.653Z,29.13
2019-06-08T05:31:43.574Z,29.30
2019-06-08T05:34:11.982Z,24.43
2019-06-08T05:36:41.326Z,29.43
2019-06-08T05:39:11.420Z,34.53
2019-06-08T05:41:39.385Z,28.70
2019-06-08T05:44:07.358Z,34.47
2019-06-08T05:46:41.816Z,32.13
2019-06-08T05:49:10.774Z,20.73
2019-06-08T05:51:39.755Z,27.63
2019-06-08T05:54:07.538Z,25.63
2019-06-08T05:56:35.420Z,24.97
2019-06-08T05:59:03.229Z,20.53
2019-06-08T06:01:31.303Z,23.93
2019-06-08T06:03:59.193Z,22.30
2019-06-08T06:06:27.143Z,25.77
2019-06-08T06:08:54.898Z,26.83
2019-06-08T06:11:22.798Z,24.00
2019-06-08T06:13:51.533Z,26.50
2019-06-08T06:16:19.417Z,28.50
2019-06-08T06:18:47.422Z,22.77
2019-06-08T06:21:15.455Z,26.57
2019-06-08T06:23:43.354Z,32.87
2019-06-08T06:26:11.449Z,30.40
2019-06-08T06:28:39.457Z,34.83
2019-06-08T06:31:07.348Z,25.50
2019-06-08T06:33:35.487Z,29.47
2019-06-08T06:36:03.493Z,23.83
2019-06-08T06:38:31.351Z,24.77
2019-06-08T06:40:59.858Z,25.33
2019-06-08T06:43:27.782Z,34.10
2019-06-08T06:45:55.647Z,36.80
2019-06-08T06:48:23.801Z,35.50
2019-06-08T06:50:52.562Z,24.03
2019-06-08T06:53:20.586Z,32.70
2019-06-08T06:55:49.053Z,31.20
2019-06-08T06:58:17.037Z,27.33
2019-06-08T07:00:45.223Z,28.27
2019-06-08T07:03:13.317Z,28.83
2019-06-08T07:05:41.379Z,29.63
2019-06-08T07:08:09.327Z,27.33
2019-06-08T07:10:37.206Z,41.33
2019-06-08T07:13:05.190Z,27.10
2019-06-08T07:15:41.187Z,22.33
2019-06-08T07:18:02.852Z,29.03
2019-06-08T07:20:30.651Z,19.47
2019-06-08T07:22:59.005Z,19.03
2019-06-08T07:25:27.159Z,25.00
2019-06-08T07:27:55.291Z,24.17
2019-06-08T07:30:23.294Z,24.17
2019-06-08T07:32:51.317Z,16.27
2019-06-08T07:35:19.222Z,17.90
2019-06-08T07:37:48.590Z,14.40
2019-06-08T07:40:17.157Z,21.47
2019-06-08T07:42:45.080Z,19.07
2019-06-08T07:45:13.135Z,23.53
2019-06-08T07:47:41.058Z,18.43
2019-06-08T07:50:08.984Z,21.50
2019-06-08T07:52:36.870Z,27.13
2019-06-08T07:55:04.973Z,28.97
2019-06-08T07:57:33.005Z,22.93
2019-06-08T08:00:08.796Z,26.30
2019-06-08T08:02:30.821Z,28.70
2019-06-08T08:04:58.913Z,24.93
2019-06-08T08:07:26.911Z,18.77
2019-06-08T08:09:54.942Z,26.97
2019-06-08T08:12:22.972Z,16.30
2019-06-08T08:14:51.275Z,21.95
2019-06-08T08:17:19.435Z,17.10
2019-06-08T08:19:48.914Z,23.52
2019-06-08T08:22:24.971Z,27.20
2019-06-08T08:24:50.410Z,17.87
2019-06-08T08:27:17.903Z,21.83
2019-06-08T08:29:47.568Z,21.37
2019-06-08T08:34:52.119Z,21.48
2019-06-08T08:37:20.238Z,19.75
2019-06-08T08:39:50.085Z,19.37
2019-06-08T08:42:18.115Z,22.98
2019-06-08T08:44:48.492Z,20.90
2019-06-08T08:47:15.796Z,20.43
2019-06-08T08:49:43.663Z,23.47
2019-06-08T08:52:11.765Z,18.17
2019-06-08T08:54:42.632Z,19.73
2019-06-08T08:57:09.308Z,20.45
2019-06-08T08:59:38.234Z,20.77
2019-06-08T09:02:11.013Z,24.77
2019-06-08T09:04:38.046Z,24.12
2019-06-08T09:07:09.611Z,24.75
2019-06-08T09:09:35.502Z,27.95
2019-06-08T09:12:04.518Z,19.70
2019-06-08T09:14:32.725Z,12.58
2019-06-08T09:17:02.153Z,21.90
2019-06-08T09:19:30.398Z,21.00
2019-06-08T09:22:00.374Z,26.27
2019-06-08T09:24:28.580Z,19.52
2019-06-08T09:27:00.071Z,12.30
2019-06-08T09:29:28.748Z,17.80
2019-06-08T09:31:58.142Z,19.60
2019-06-08T09:34:28.111Z,17.60
2019-06-08T09:36:59.724Z,19.92
2019-06-08T09:39:25.256Z,22.73
2019-06-08T09:41:54.284Z,21.23
2019-06-08T09:44:22.987Z,17.30
2019-06-08T09:46:50.906Z,23.60
2019-06-08T09:49:19.009Z,16.20
2019-06-08T09:51:48.689Z,20.72
2019-06-08T09:54:18.227Z,27.20
2019-06-08T09:56:47.866Z,23.05
2019-06-08T09:59:18.369Z,26.30
2019-06-08T10:01:45.789Z,16.40
2019-06-08T10:04:13.843Z,25.77
2019-06-08T10:06:41.955Z,16.02
2019-06-08T10:09:10.123Z,22.98
2019-06-08T10:11:38.125Z,14.10
2019-06-08T10:14:11.556Z,14.07
2019-06-08T10:16:37.993Z,17.73
2019-06-08T10:19:07.971Z,24.35
2019-06-08T10:21:35.098Z,11.93
2019-06-08T10:24:05.997Z,14.93
2019-06-08T10:26:32.844Z,19.30
2019-06-08T10:29:03.506Z,18.20
2019-06-08T10:31:38.915Z,16.75
2019-06-08T10:34:03.205Z,16.62
2019-06-08T10:36:29.876Z,15.08
2019-06-08T10:39:01.856Z,17.42
2019-06-08T10:41:27.926Z,12.98
2019-06-08T10:43:57.155Z,11.90
2019-06-08T10:46:25.287Z,18.40
2019-06-08T10:49:14.271Z,23.45
2019-06-08T10:51:42.040Z,16.95
2019-06-08T10:54:11.428Z,17.17
2019-06-08T10:56:39.531Z,11.83
2019-06-08T10:59:10.550Z,17.42
2019-06-08T11:01:38.530Z,17.42
2019-06-08T11:04:07.147Z,18.32
2019-06-08T11:06:39.867Z,13.50
2019-06-08T11:09:12.137Z,18.90
2019-06-08T11:11:38.138Z,15.28
2019-06-08T11:14:09.773Z,17.95
2019-06-08T11:16:38.495Z,15.93
2019-06-08T11:19:12.916Z,21.05
2019-06-08T11:21:38.846Z,14.25
2019-06-08T11:24:19.537Z,14.03
2019-06-08T11:26:39.960Z,14.90
2019-06-08T11:29:09.588Z,11.88
2019-06-08T11:31:35.951Z,15.40
2019-06-08T11:34:04.072Z,13.13
2019-06-08T11:36:32.108Z,11.63
2019-06-08T11:39:00.517Z,14.33
2019-06-08T11:41:29.245Z,12.47
2019-06-08T11:43:59.585Z,12.98
2019-06-08T11:46:28.195Z,14.93
2019-06-08T11:48:57.693Z,35.25
2019-06-08T11:51:29.644Z,11.80
2019-06-08T11:53:55.623Z,14.50
2019-06-08T11:56:24.131Z,12.75
2019-06-08T11:58:52.114Z,14.15
2019-06-08T12:01:20.052Z,16.45
2019-06-08T12:03:48.349Z,12.80
2019-06-08T12:06:18.595Z,13.90
2019-06-08T12:08:47.313Z,14.68
2019-06-08T12:11:18.817Z,14.18
2019-06-08T12:13:46.911Z,13.95
2019-06-08T12:16:18.765Z,12.45
2019-06-08T12:18:44.480Z,12.78
2019-06-08T12:25:43.244Z,12.37
2019-06-08T12:28:12.598Z,10.78
2019-06-08T12:30:40.730Z,12.80
2019-06-08T12:33:09.805Z,10.58
2019-06-08T12:35:38.807Z,11.15
2019-06-08T12:38:09.654Z,11.88
2019-06-08T12:40:37.845Z,14.87
2019-06-08T12:43:09.381Z,15.65
2019-06-08T12:45:38.640Z,10.40
2019-06-08T12:48:09.826Z,16.45
2019-06-08T12:50:38.625Z,10.40
2019-06-08T12:53:11.223Z,14.53
2019-06-08T12:55:37.745Z,9.75
2019-06-08T12:58:08.151Z,13.10
2019-06-08T13:00:39.020Z,11.65
2019-06-08T13:03:08.606Z,12.45
2019-06-08T13:05:37.960Z,14.80
2019-06-08T13:08:08.426Z,10.00
2019-06-08T13:10:38.193Z,13.45
2019-06-08T13:13:08.468Z,13.83
2019-06-08T13:15:38.457Z,13.48
2019-06-08T13:18:08.649Z,11.18
2019-06-08T13:20:38.762Z,12.98
2019-06-08T13:23:08.711Z,11.68
2019-06-08T13:25:40.103Z,18.23
2019-06-08T13:28:10.916Z,13.72
2019-06-08T13:30:38.828Z,12.20
2019-06-08T13:33:08.070Z,12.30
2019-06-08T13:35:39.245Z,14.07
2019-06-08T13:38:08.698Z,10.75
2019-06-08T13:40:37.782Z,10.65
2019-06-08T13:43:08.160Z,14.98
2019-06-08T13:45:39.022Z,14.63
2019-06-08T13:48:08.724Z,17.10
2019-06-08T13:50:36.646Z,15.80
2019-06-08T13:53:04.653Z,12.33
2019-06-08T13:55:48.389Z,13.95
2019-06-08T13:58:03.065Z,13.53
2019-06-08T14:00:35.079Z,10.68
2019-06-08T14:03:04.088Z,15.93
2019-06-08T14:05:32.260Z,10.53
2019-06-08T14:08:00.682Z,13.65
2019-06-08T14:10:38.630Z,14.70
2019-06-08T14:13:06.521Z,13.32
2019-06-08T14:15:34.668Z,15.13
2019-06-08T14:18:03.148Z,21.10
2019-06-08T14:20:34.428Z,9.95
2019-06-08T14:23:01.547Z,10.53
2019-06-08T14:25:34.181Z,18.15
2019-06-08T14:27:59.764Z,11.20
2019-06-08T14:30:31.084Z,15.75
2019-06-08T14:32:58.054Z,11.53
2019-06-08T14:35:27.107Z,10.72
2019-06-08T14:37:57.908Z,15.50
2019-06-08T14:40:30.967Z,14.30
2019-06-08T14:42:58.112Z,10.98
2019-06-08T14:45:28.902Z,12.10
2019-06-08T14:47:58.571Z,13.15
2019-06-08T14:50:29.275Z,9.00
2019-06-08T14:52:58.809Z,11.53
2019-06-08T14:55:31.641Z,10.28
2019-06-08T14:57:58.015Z,13.18
2019-06-08T15:00:27.727Z,12.55
2019-06-08T15:02:58.629Z,11.68
2019-06-08T15:05:28.920Z,8.45
2019-06-08T15:07:58.159Z,10.30
2019-06-08T15:10:29.355Z,14.78
2019-06-08T15:12:57.779Z,14.00
2019-06-08T15:15:28.878Z,10.72
2019-06-08T15:17:58.299Z,14.87
2019-06-08T15:20:26.345Z,16.25
2019-06-08T15:22:54.589Z,13.58
2019-06-08T15:25:22.731Z,11.48
2019-06-08T15:27:50.969Z,16.75
2019-06-08T15:30:38.279Z,12.60
2019-06-08T15:33:06.543Z,12.03
2019-06-08T15:35:34.783Z,13.53
2019-06-08T15:38:02.851Z,9.30
2019-06-08T15:40:31.893Z,11.03
2019-06-08T15:43:00.034Z,11.53
2019-06-08T15:45:30.974Z,11.68
2019-06-08T15:47:58.747Z,9.70
2019-06-08T15:50:28.408Z,18.30
2019-06-08T15:52:59.834Z,11.40
2019-06-08T15:55:29.852Z,15.93
2019-06-08T15:57:58.455Z,11.28
2019-06-08T16:00:28.337Z,15.50
2019-06-08T16:02:56.616Z,15.60
2019-06-08T16:05:25.602Z,13.30
2019-06-08T16:07:53.836Z,14.47
2019-06-08T16:10:22.069Z,10.97
2019-06-08T16:12:50.308Z,10.80
2019-06-08T16:15:18.422Z,10.07
2019-06-08T16:17:46.672Z,13.78
2019-06-08T16:20:14.932Z,12.43
2019-06-08T16:22:42.991Z,13.90
2019-06-08T16:25:11.094Z,13.23
2019-06-08T16:27:39.242Z,11.67
2019-06-08T16:30:09.515Z,13.70
2019-06-08T16:32:39.734Z,14.80
2019-06-08T16:35:08.155Z,16.53
2019-06-08T16:37:36.386Z,12.03
2019-06-08T16:40:04.752Z,10.63
2019-06-08T16:42:32.881Z,15.40
2019-06-08T16:45:01.251Z,11.67
2019-06-08T16:47:29.588Z,13.47
2019-06-08T16:49:57.915Z,11.80
2019-06-08T16:52:25.974Z,18.83
2019-06-08T16:54:54.515Z,20.03
2019-06-08T16:57:22.624Z,11.63
2019-06-08T16:59:50.815Z,19.92
2019-06-08T17:02:19.139Z,21.57
2019-06-08T17:04:47.465Z,13.77
2019-06-08T17:07:15.565Z,17.33
2019-06-08T17:09:43.852Z,14.70
2019-06-08T17:12:12.089Z,12.30
2019-06-08T17:14:40.708Z,16.50
2019-06-08T17:17:09.133Z,11.53
2019-06-08T17:19:38.459Z,12.63
2019-06-08T17:22:06.714Z,13.93
2019-06-08T17:24:34.953Z,16.73
2019-06-08T17:27:03.188Z,14.03
2019-06-08T17:29:32.714Z,14.77
2019-06-08T17:32:00.995Z,16.77
2019-06-08T17:34:29.236Z,14.90
2019-06-08T17:36:57.405Z,10.67
2019-06-08T17:39:25.610Z,14.43
2019-06-08T17:41:53.753Z,13.03
2019-06-08T17:44:21.925Z,19.50
2019-06-08T17:46:50.239Z,16.77
2019-06-08T17:49:18.511Z,17.40
2019-06-08T17:51:46.752Z,16.23
2019-06-08T17:54:14.955Z,16.17
2019-06-08T17:56:43.457Z,18.40
2019-06-08T17:59:11.791Z,9.90
2019-06-08T18:01:40.091Z,12.57
2019-06-08T18:04:08.318Z,20.20
2019-06-08T18:06:38.649Z,15.43
2019-06-08T18:09:09.833Z,10.30
2019-06-08T18:11:41.474Z,14.83
2019-06-08T18:14:08.522Z,14.57
2019-06-08T18:16:39.391Z,13.00
2019-06-08T18:19:08.771Z,15.50
2019-06-08T18:21:38.943Z,13.70
2019-06-08T18:24:07.802Z,13.37
2019-06-08T18:26:38.549Z,9.87
2019-06-08T18:29:07.933Z,10.07
2019-06-08T18:31:39.519Z,11.37
2019-06-08T18:34:08.266Z,21.93
2019-06-08T18:36:39.123Z,13.63
2019-06-08T18:39:07.190Z,17.67
2019-06-08T18:41:37.843Z,16.03
2019-06-08T18:44:07.944Z,12.37
2019-06-08T18:46:37.578Z,12.63
2019-06-08T18:49:08.043Z,12.97
2019-06-08T18:51:38.142Z,16.43
2019-06-08T18:54:14.360Z,17.53
2019-06-08T18:56:38.711Z,9.43
2019-06-08T18:59:07.703Z,9.83
2019-06-08T19:01:39.084Z,10.30
2019-06-08T19:04:07.619Z,15.57
2019-06-08T19:06:38.723Z,11.63
2019-06-08T19:09:07.603Z,10.73
2019-06-08T19:11:37.725Z,9.80
2019-06-08T19:14:07.166Z,17.43
2019-06-08T19:16:36.987Z,14.23
2019-06-08T19:19:07.285Z,11.07
2019-06-08T19:21:35.164Z,14.37
2019-06-08T19:24:03.379Z,14.07
2019-06-08T19:26:31.625Z,14.97
2019-06-08T19:28:59.803Z,16.80
2019-06-08T19:31:28.010Z,16.73
2019-06-08T19:33:58.111Z,13.50
2019-06-08T19:36:28.382Z,13.33
2019-06-08T19:38:57.702Z,16.27
2019-06-08T19:41:28.083Z,15.23
2019-06-08T19:43:58.211Z,18.57
2019-06-08T19:46:27.161Z,19.23
2019-06-08T19:48:56.419Z,16.63
2019-06-08T19:51:27.615Z,13.60
2019-06-08T19:53:58.033Z,21.80
2019-06-08T19:56:27.961Z,15.90
2019-06-08T19:59:01.737Z,21.30
2019-06-08T20:01:27.674Z,21.03
2019-06-08T20:03:58.010Z,21.83
2019-06-08T20:06:27.767Z,15.80
2019-06-08T20:08:57.571Z,15.50
2019-06-08T20:11:26.071Z,15.90
2019-06-08T20:13:54.265Z,16.80
2019-06-08T20:16:22.715Z,15.87
2019-06-08T20:18:51.695Z,13.47
2019-06-08T20:21:20.927Z,15.83
2019-06-08T20:23:50.801Z,29.27
2019-06-08T20:26:19.095Z,47.30
2019-06-08T20:28:49.781Z,54.93
2019-06-08T20:31:18.026Z,70.50
2019-06-08T20:33:48.164Z,43.63
2019-06-08T20:36:17.469Z,34.07
2019-06-08T20:38:46.388Z,30.27
2019-06-08T20:41:18.131Z,21.47
2019-06-08T20:43:49.138Z,22.77
2019-06-08T20:46:17.185Z,24.33
2019-06-08T20:48:48.433Z,20.37
2019-06-08T20:51:17.258Z,21.27
2019-06-08T20:53:47.845Z,21.30
2019-06-08T20:56:17.371Z,17.23
2019-06-08T20:58:47.916Z,15.67
2019-06-08T21:01:17.883Z,12.70
2019-06-08T21:03:48.160Z,14.70
2019-06-08T21:06:17.143Z,17.07
2019-06-08T21:08:46.605Z,19.37
2019-06-08T21:11:17.487Z,23.83
2019-06-08T21:13:45.693Z,20.93
2019-06-08T21:16:15.191Z,15.23
2019-06-08T21:18:43.307Z,16.90
2019-06-08T21:21:11.795Z,20.03
2019-06-08T21:23:39.918Z,20.17
2019-06-08T21:26:08.135Z,18.40
2019-06-08T21:28:38.417Z,17.97
2019-06-08T21:31:08.362Z,18.30
2019-06-08T21:33:37.952Z,15.23
2019-06-08T21:36:08.786Z,23.03
2019-06-08T21:38:37.719Z,14.67
2019-06-08T21:41:08.253Z,15.53
2019-06-08T21:43:37.462Z,15.63
2019-06-08T21:46:07.784Z,18.27
2019-06-08T21:48:37.991Z,21.90
2019-06-08T21:51:08.030Z,14.83
2019-06-08T21:53:37.985Z,18.03
2019-06-08T21:56:07.661Z,13.00
2019-06-08T21:58:37.811Z,17.87
2019-06-08T22:01:07.353Z,14.37
2019-06-08T22:03:37.902Z,13.73
2019-06-08T22:06:07.965Z,12.57
2019-06-08T22:08:37.505Z,16.63
2019-06-08T22:11:05.473Z,12.77
2019-06-08T22:13:33.851Z,13.40
2019-06-08T22:16:03.990Z,9.73
2019-06-08T22:18:32.049Z,10.53
2019-06-08T22:21:01.162Z,11.40
2019-06-08T22:23:29.517Z,16.20
2019-06-08T22:25:59.563Z,12.47
2019-06-08T22:28:27.753Z,13.73
2019-06-08T22:30:58.471Z,13.13
2019-06-08T22:33:28.075Z,11.47
2019-06-08T22:35:58.541Z,11.23
2019-06-08T22:38:26.031Z,14.10
2019-06-08T22:40:55.242Z,14.57
2019-06-08T22:43:24.252Z,18.80
2019-06-08T22:45:52.896Z,13.57
2019-06-08T22:48:22.395Z,13.07
2019-06-08T22:50:50.721Z,14.63
2019-06-08T22:53:18.954Z,13.67
2019-06-08T22:55:47.623Z,12.60
2019-06-08T22:58:18.775Z,12.33
2019-06-08T23:00:52.749Z,10.67
2019-06-08T23:03:18.415Z,15.27
2019-06-08T23:05:47.691Z,13.13
2019-06-08T23:08:17.649Z,17.40
2019-06-08T23:10:48.077Z,17.13
2019-06-08T23:13:17.981Z,25.63
2019-06-08T23:15:47.961Z,17.27
2019-06-08T23:18:17.925Z,21.03
2019-06-08T23:20:47.957Z,21.23
2019-06-08T23:23:17.857Z,20.70
2019-06-08T23:25:47.860Z,14.10
2019-06-08T23:28:18.069Z,16.77
2019-06-08T23:30:47.786Z,17.40
2019-06-08T23:33:18.641Z,20.23
2019-06-08T23:36:21.729Z,13.53
2019-06-08T23:38:17.272Z,17.03
2019-06-08T23:40:47.460Z,21.13
2019-06-08T23:43:17.929Z,19.17
2019-06-08T23:45:47.464Z,14.40
2019-06-08T23:48:17.376Z,17.47
2019-06-08T23:50:47.379Z,16.70
2019-06-08T23:53:18.032Z,17.87
2019-06-08T23:55:47.721Z,12.93
2019-06-08T23:58:17.541Z,17.00
